createdAt,value
2023-04-16T00:01:10.901Z,7.41
2023-04-16T00:06:13.734Z,7.40
2023-04-16T00:11:16.509Z,7.45
2023-04-16T00:16:20.626Z,7.46
2023-04-16T00:21:23.644Z,7.47
2023-04-16T00:26:26.967Z,7.46
2023-04-16T00:31:33.487Z,7.42
2023-04-16T00:36:39.344Z,7.41
2023-04-16T00:41:42.204Z,7.41
2023-04-16T00:46:47.212Z,7.43
2023-04-16T00:51:50.250Z,7.38
2023-04-16T00:56:53.037Z,7.36
2023-04-16T01:01:57.366Z,7.34
2023-04-16T01:07:00.197Z,7.34
2023-04-16T01:12:03.494Z,7.38
2023-04-16T01:17:07.592Z,7.31
2023-04-16T01:22:11.665Z,7.33
2023-04-16T01:27:14.813Z,7.29
2023-04-16T01:32:17.579Z,7.23
2023-04-16T01:37:21.867Z,7.25
2023-04-16T01:42:24.565Z,7.25
2023-04-16T01:47:27.574Z,7.25
2023-04-16T01:52:31.969Z,7.23
2023-04-16T01:57:34.796Z,7.23
2023-04-16T02:02:39.704Z,7.25
2023-04-16T02:07:44.245Z,7.24
2023-04-16T02:12:47.576Z,7.28
2023-04-16T02:17:54.927Z,7.29
2023-04-16T02:22:59.825Z,7.32
2023-04-16T02:28:03.165Z,7.33
2023-04-16T02:33:14.038Z,7.32
2023-04-16T02:38:28.501Z,7.29
2023-04-16T02:43:31.646Z,7.26
2023-04-16T02:48:34.513Z,7.25
2023-04-16T02:53:38.665Z,7.25
2023-04-16T02:58:41.556Z,7.25
2023-04-16T03:03:44.432Z,7.22
2023-04-16T03:08:48.652Z,7.20
2023-04-16T03:13:51.866Z,7.23
2023-04-16T03:18:54.568Z,7.22
2023-04-16T03:23:58.633Z,7.20
2023-04-16T03:29:02.476Z,7.19
2023-04-16T03:34:07.268Z,7.16
2023-04-16T03:39:12.390Z,7.14
2023-04-16T03:44:15.527Z,7.12
2023-04-16T03:49:18.695Z,7.12
2023-04-16T03:54:23.140Z,7.10
2023-04-16T03:59:33.039Z,7.12
2023-04-16T04:04:36.740Z,7.09
2023-04-16T04:09:41.083Z,7.10
2023-04-16T04:14:43.990Z,7.09
2023-04-16T04:19:59.985Z,7.08
2023-04-16T04:25:08.542Z,7.04
2023-04-16T04:30:12.392Z,7.09
2023-04-16T04:35:16.685Z,7.07
2023-04-16T04:40:21.582Z,7.06
2023-04-16T04:45:25.595Z,7.08
2023-04-16T04:50:29.898Z,7.08
2023-04-16T04:55:35.036Z,7.09
2023-04-16T05:00:38.587Z,7.09
2023-04-16T05:05:42.449Z,7.14
2023-04-16T05:10:47.016Z,7.16
2023-04-16T05:15:49.907Z,7.17
2023-04-16T05:20:53.166Z,7.17
2023-04-16T05:25:58.591Z,7.18
2023-04-16T05:31:01.421Z,7.22
2023-04-16T05:36:04.462Z,7.22
2023-04-16T05:41:08.601Z,7.23
2023-04-16T05:46:13.497Z,7.26
2023-04-16T05:51:16.614Z,7.27
2023-04-16T05:56:22.828Z,7.31
2023-04-16T06:01:26.592Z,7.34
2023-04-16T06:06:29.452Z,7.34
2023-04-16T06:11:35.166Z,7.38
2023-04-16T06:16:39.067Z,7.43
2023-04-16T06:21:41.860Z,7.47
2023-04-16T06:26:46.239Z,7.53
2023-04-16T06:31:49.621Z,7.57
2023-04-16T06:36:52.491Z,7.64
2023-04-16T06:41:57.191Z,7.67
2023-04-16T06:47:00.087Z,7.71
2023-04-16T06:52:05.123Z,7.84
2023-04-16T06:57:09.985Z,7.88
2023-04-16T07:02:14.473Z,8.01
2023-04-16T07:07:17.364Z,8.10
2023-04-16T07:12:22.865Z,8.12
2023-04-16T07:17:25.832Z,8.18
2023-04-16T07:22:28.559Z,8.16
2023-04-16T07:27:33.055Z,8.16
2023-04-16T07:32:36.188Z,8.14
2023-04-16T07:37:38.910Z,8.15
2023-04-16T07:42:44.051Z,8.21
2023-04-16T07:47:47.055Z,8.21
2023-04-16T07:52:50.748Z,8.31
2023-04-16T07:57:55.278Z,8.28
2023-04-16T08:02:59.003Z,8.23
2023-04-16T08:08:01.935Z,8.34
2023-04-16T08:13:12.184Z,8.32
2023-04-16T08:18:15.654Z,8.40
2023-04-16T08:23:18.638Z,8.47
2023-04-16T08:28:22.842Z,8.54
2023-04-16T08:33:25.780Z,8.43
2023-04-16T08:38:28.687Z,8.57
2023-04-16T08:43:35.190Z,8.65
2023-04-16T08:48:38.536Z,8.58
2023-04-16T08:53:49.615Z,8.70
2023-04-16T08:58:57.398Z,8.74
2023-04-16T09:04:01.524Z,8.64
2023-04-16T09:09:08.429Z,8.66
2023-04-16T09:14:13.688Z,8.65
2023-04-16T09:19:17.150Z,8.62
2023-04-16T09:24:20.294Z,8.71
2023-04-16T09:29:37.888Z,8.85
2023-04-16T09:34:57.292Z,8.89
2023-04-16T09:40:02.783Z,8.91
2023-04-16T09:45:08.232Z,8.99
2023-04-16T09:50:18.239Z,9.05
2023-04-16T09:55:24.045Z,9.10
2023-04-16T10:00:31.763Z,9.12
2023-04-16T10:05:34.568Z,9.17
2023-04-16T10:10:37.820Z,9.24
2023-04-16T10:15:42.305Z,9.33
2023-04-16T10:20:45.724Z,9.43
2023-04-16T10:25:50.425Z,9.80
2023-04-16T10:30:55.840Z,9.88
2023-04-16T10:36:09.777Z,10.07
2023-04-16T10:41:12.877Z,9.99
2023-04-16T10:46:22.610Z,10.23
2023-04-16T10:51:28.788Z,10.35
2023-04-16T10:56:34.866Z,10.69
2023-04-16T11:01:42.905Z,11.03
2023-04-16T11:07:02.365Z,10.85
2023-04-16T11:12:10.676Z,10.88
2023-04-16T11:17:14.864Z,11.10
2023-04-16T11:22:18.742Z,10.91
2023-04-16T11:27:21.821Z,10.92
2023-04-16T11:32:26.006Z,11.03
2023-04-16T11:37:35.754Z,11.28
2023-04-16T11:42:41.043Z,11.00
2023-04-16T11:47:46.919Z,10.78
2023-04-16T11:52:51.531Z,11.44
2023-04-16T11:57:54.398Z,11.63
2023-04-16T12:02:58.969Z,11.49
2023-04-16T12:08:03.872Z,11.51
2023-04-16T12:13:12.951Z,11.33
2023-04-16T12:18:18.802Z,11.29
2023-04-16T12:23:26.168Z,11.66
2023-04-16T12:28:33.228Z,12.32
2023-04-16T12:33:37.436Z,12.64
2023-04-16T12:38:40.415Z,12.73
2023-04-16T12:43:43.978Z,13.08
2023-04-16T12:48:49.720Z,12.70
2023-04-16T12:53:52.421Z,13.02
2023-04-16T12:58:55.832Z,13.04
2023-04-16T13:03:59.965Z,13.31
2023-04-16T13:09:02.887Z,13.88
2023-04-16T13:14:06.265Z,14.02
2023-04-16T13:19:10.720Z,14.11
2023-04-16T13:24:13.659Z,13.36
2023-04-16T13:29:16.501Z,13.16
2023-04-16T13:34:20.873Z,13.30
2023-04-16T13:39:23.576Z,13.82
2023-04-16T13:44:26.478Z,13.64
2023-04-16T13:49:31.489Z,13.79
2023-04-16T13:54:36.056Z,14.20
2023-04-16T13:59:39.952Z,15.08
2023-04-16T14:04:44.995Z,15.84
2023-04-16T14:09:47.825Z,15.26
2023-04-16T14:14:53.005Z,14.69
2023-04-16T14:19:57.324Z,14.24
2023-04-16T14:25:00.984Z,13.69
2023-04-16T14:30:03.906Z,13.12
2023-04-16T14:35:10.263Z,12.84
2023-04-16T14:40:13.685Z,12.61
2023-04-16T14:45:16.785Z,12.37
2023-04-16T14:50:20.851Z,12.37
2023-04-16T14:55:23.808Z,12.17
2023-04-16T15:00:28.021Z,12.18
2023-04-16T15:05:32.586Z,12.18
2023-04-16T15:10:35.772Z,12.09
2023-04-16T15:15:38.931Z,11.93
2023-04-16T15:20:43.037Z,11.79
2023-04-16T15:25:45.841Z,11.72
2023-04-16T15:30:48.648Z,11.79
2023-04-16T15:35:53.301Z,11.92
2023-04-16T15:40:56.874Z,11.97
2023-04-16T15:45:59.728Z,12.59
2023-04-16T15:51:03.980Z,12.92
2023-04-16T15:56:07.666Z,12.63
2023-04-16T16:01:10.419Z,12.52
2023-04-16T16:06:14.766Z,12.26
2023-04-16T16:11:17.644Z,12.35
2023-04-16T16:16:21.984Z,11.92
2023-04-16T16:21:29.034Z,11.79
2023-04-16T16:26:32.632Z,11.65
2023-04-16T16:31:35.578Z,11.44
2023-04-16T16:36:40.573Z,11.38
2023-04-16T16:41:43.338Z,11.37
2023-04-16T16:46:47.115Z,11.18
2023-04-16T16:51:51.302Z,11.15
2023-04-16T16:56:54.299Z,10.99
2023-04-16T17:01:57.208Z,10.95
2023-04-16T17:07:01.588Z,10.95
2023-04-16T17:12:05.176Z,10.94
2023-04-16T17:17:07.967Z,10.83
2023-04-16T17:22:12.072Z,10.68
2023-04-16T17:27:15.092Z,10.60
2023-04-16T17:32:18.230Z,10.57
2023-04-16T17:37:22.472Z,10.50
2023-04-16T17:42:25.578Z,10.39
2023-04-16T17:47:28.442Z,10.35
2023-04-16T17:52:32.652Z,10.32
2023-04-16T17:57:36.527Z,10.23
2023-04-16T18:02:40.920Z,10.22
2023-04-16T18:07:46.897Z,10.16
2023-04-16T18:12:49.736Z,10.05
2023-04-16T18:17:52.938Z,10.00
2023-04-16T18:22:58.356Z,9.96
2023-04-16T18:28:01.215Z,9.93
2023-04-16T18:38:13.644Z,9.85
2023-04-16T18:43:16.424Z,9.82
2023-04-16T18:48:19.775Z,9.74
2023-04-16T18:53:23.870Z,9.74
2023-04-16T18:58:27.146Z,9.73
2023-04-16T19:03:31.360Z,9.72
2023-04-16T19:08:35.959Z,9.69
2023-04-16T19:13:39.257Z,9.66
2023-04-16T19:18:42.055Z,9.65
2023-04-16T19:23:46.228Z,9.61
2023-04-16T19:28:49.271Z,9.60
2023-04-16T19:33:52.451Z,9.57
2023-04-16T19:38:57.245Z,9.53
2023-04-16T19:44:00.124Z,9.50
2023-04-16T19:49:02.907Z,9.45
2023-04-16T19:54:07.166Z,9.41
2023-04-16T19:59:10.259Z,9.34
2023-04-16T20:04:13.341Z,9.27
2023-04-16T20:09:19.929Z,9.23
2023-04-16T20:14:24.856Z,9.24
2023-04-16T20:19:33.625Z,9.23
2023-04-16T20:24:38.483Z,9.21
2023-04-16T20:29:41.881Z,9.20
2023-04-16T20:34:44.696Z,9.18
2023-04-16T20:39:50.068Z,9.17
2023-04-16T20:44:56.196Z,9.17
2023-04-16T20:50:01.737Z,9.16
2023-04-16T20:55:07.977Z,9.17
2023-04-16T21:00:12.045Z,9.14
2023-04-16T21:05:16.591Z,9.13
2023-04-16T21:10:20.956Z,9.13
2023-04-16T21:15:23.692Z,9.14
2023-04-16T21:20:27.378Z,9.13
2023-04-16T21:25:33.514Z,9.14
2023-04-16T21:30:36.518Z,9.15
2023-04-16T21:35:39.202Z,9.16
2023-04-16T21:40:43.324Z,9.13
2023-04-16T21:45:46.174Z,9.14
2023-04-16T21:50:49.004Z,9.14
2023-04-16T21:55:53.204Z,9.13
2023-04-16T22:00:56.084Z,9.12
2023-04-16T22:06:00.753Z,9.12
2023-04-16T22:11:05.110Z,9.11
2023-04-16T22:16:10.747Z,9.09
2023-04-16T22:21:14.552Z,9.06
2023-04-16T22:26:18.762Z,9.03
2023-04-16T22:31:21.574Z,8.99
2023-04-16T22:36:24.277Z,8.92
2023-04-16T22:41:28.489Z,8.78
2023-04-16T22:46:31.375Z,8.73
2023-04-16T22:51:34.180Z,8.73
2023-04-16T22:56:38.790Z,8.75
2023-04-16T23:01:42.149Z,8.73
2023-04-16T23:06:46.189Z,8.70
2023-04-16T23:11:50.308Z,8.66
2023-04-16T23:16:53.050Z,8.64
2023-04-16T23:21:55.829Z,8.61
2023-04-16T23:26:59.884Z,8.52
2023-04-16T23:32:02.758Z,8.48
2023-04-16T23:37:05.631Z,8.52
2023-04-16T23:42:09.829Z,8.52
2023-04-16T23:47:12.591Z,8.42
2023-04-16T23:52:15.287Z,8.38
2023-04-16T23:57:19.495Z,8.34
